sensor_id;sensor_type;location;lat;lon;timestamp;pressure;altitude;pressure_sealevel;temperature;humidity
29549;BME280;16487;53.094;8.800;2022-10-16T00:00:43;100923.91;;;13.49;100.00
29549;BME280;16487;53.094;8.800;2022-10-16T00:03:10;100921.75;;;13.53;100.00
29549;BME280;16487;53.094;8.800;2022-10-16T00:05:39;100918.94;;;13.53;100.00
29549;BME280;16487;53.094;8.800;2022-10-16T00:08:07;100928.41;;;13.46;100.00
29549;BME280;16487;53.094;8.800;2022-10-16T00:10:35;100938.03;;;13.45;100.00
29549;BME280;16487;53.094;8.800;2022-10-16T00:13:04;100932.44;;;13.45;100.00
29549;BME280;16487;53.094;8.800;2022-10-16T00:15:33;100939.75;;;13.43;100.00
29549;BME280;16487;53.094;8.800;2022-10-16T00:18:01;100935.53;;;13.38;100.00
29549;BME280;16487;53.094;8.800;2022-10-16T00:20:28;100933.75;;;13.32;100.00
29549;BME280;16487;53.094;8.800;2022-10-16T00:22:55;100938.72;;;13.28;100.00
29549;BME280;16487;53.094;8.800;2022-10-16T00:25:23;100935.47;;;13.29;100.00
29549;BME280;16487;53.094;8.800;2022-10-16T00:27:50;100937.34;;;13.32;100.00
29549;BME280;16487;53.094;8.800;2022-10-16T00:30:18;100951.94;;;13.27;100.00
29549;BME280;16487;53.094;8.800;2022-10-16T00:32:46;100945.88;;;13.29;100.00
29549;BME280;16487;53.094;8.800;2022-10-16T00:35:13;100945.88;;;13.29;100.00
29549;BME280;16487;53.094;8.800;2022-10-16T00:37:40;100939.19;;;13.26;100.00
29549;BME280;16487;53.094;8.800;2022-10-16T00:40:08;100953.56;;;13.16;100.00
29549;BME280;16487;53.094;8.800;2022-10-16T00:42:36;100963.72;;;13.22;100.00
29549;BME280;16487;53.094;8.800;2022-10-16T00:45:04;100968.06;;;13.23;100.00
29549;BME280;16487;53.094;8.800;2022-10-16T00:47:35;100966.41;;;13.26;100.00
29549;BME280;16487;53.094;8.800;2022-10-16T00:50:08;100962.81;;;13.25;100.00
29549;BME280;16487;53.094;8.800;2022-10-16T00:52:36;100964.94;;;13.21;100.00
29549;BME280;16487;53.094;8.800;2022-10-16T00:55:07;100965.94;;;13.27;100.00
29549;BME280;16487;53.094;8.800;2022-10-16T00:57:35;100965.28;;;13.23;100.00
29549;BME280;16487;53.094;8.800;2022-10-16T01:00:05;100968.66;;;13.18;100.00
29549;BME280;16487;53.094;8.800;2022-10-16T01:02:34;100966.78;;;13.15;100.00
29549;BME280;16487;53.094;8.800;2022-10-16T01:05:02;100957.72;;;13.11;100.00
29549;BME280;16487;53.094;8.800;2022-10-16T01:07:39;100965.91;;;13.06;100.00
29549;BME280;16487;53.094;8.800;2022-10-16T01:10:16;100963.78;;;12.97;100.00
29549;BME280;16487;53.094;8.800;2022-10-16T01:12:50;100967.19;;;12.92;100.00
29549;BME280;16487;53.094;8.800;2022-10-16T01:15:25;100967.44;;;12.85;100.00
29549;BME280;16487;53.094;8.800;2022-10-16T01:17:59;100960.53;;;12.77;100.00
29549;BME280;16487;53.094;8.800;2022-10-16T01:20:30;100964.25;;;12.74;100.00
29549;BME280;16487;53.094;8.800;2022-10-16T01:23:18;100971.41;;;12.62;100.00
29549;BME280;16487;53.094;8.800;2022-10-16T01:26:10;100963.38;;;12.52;100.00
29549;BME280;16487;53.094;8.800;2022-10-16T01:28:47;100980.50;;;12.54;100.00
29549;BME280;16487;53.094;8.800;2022-10-16T01:31:18;100981.41;;;12.51;100.00
29549;BME280;16487;53.094;8.800;2022-10-16T01:33:51;100987.13;;;12.47;100.00
29549;BME280;16487;53.094;8.800;2022-10-16T01:36:36;100980.09;;;12.43;100.00
29549;BME280;16487;53.094;8.800;2022-10-16T01:39:06;100985.81;;;12.39;100.00
29549;BME280;16487;53.094;8.800;2022-10-16T01:41:39;100993.72;;;12.41;100.00
29549;BME280;16487;53.094;8.800;2022-10-16T01:44:11;100997.84;;;12.49;100.00
29549;BME280;16487;53.094;8.800;2022-10-16T01:46:44;100989.78;;;12.51;100.00
29549;BME280;16487;53.094;8.800;2022-10-16T01:49:13;100997.75;;;12.40;100.00
29549;BME280;16487;53.094;8.800;2022-10-16T01:51:42;101002.22;;;12.37;100.00
29549;BME280;16487;53.094;8.800;2022-10-16T01:54:14;101007.72;;;12.41;100.00
29549;BME280;16487;53.094;8.800;2022-10-16T01:56:43;101013.75;;;12.39;100.00
29549;BME280;16487;53.094;8.800;2022-10-16T01:59:14;101010.72;;;12.34;100.00
29549;BME280;16487;53.094;8.800;2022-10-16T02:01:47;101008.06;;;12.30;100.00
29549;BME280;16487;53.094;8.800;2022-10-16T02:04:19;101007.59;;;12.32;100.00
29549;BME280;16487;53.094;8.800;2022-10-16T02:06:48;101005.25;;;12.30;100.00
29549;BME280;16487;53.094;8.800;2022-10-16T02:09:15;101010.06;;;12.30;100.00
29549;BME280;16487;53.094;8.800;2022-10-16T02:11:43;101017.53;;;12.33;100.00
29549;BME280;16487;53.094;8.800;2022-10-16T02:14:12;101018.78;;;12.32;100.00
29549;BME280;16487;53.094;8.800;2022-10-16T02:16:42;101025.28;;;12.29;100.00
29549;BME280;16487;53.094;8.800;2022-10-16T02:19:12;101033.09;;;12.21;100.00
29549;BME280;16487;53.094;8.800;2022-10-16T02:21:43;101047.84;;;12.22;100.00
29549;BME280;16487;53.094;8.800;2022-10-16T02:24:17;101052.19;;;12.23;100.00
29549;BME280;16487;53.094;8.800;2022-10-16T02:26:51;101060.81;;;12.16;100.00
29549;BME280;16487;53.094;8.800;2022-10-16T02:29:23;101059.16;;;12.18;100.00
29549;BME280;16487;53.094;8.800;2022-10-16T02:31:57;101059.38;;;12.24;100.00
29549;BME280;16487;53.094;8.800;2022-10-16T02:34:27;101051.88;;;12.21;100.00
29549;BME280;16487;53.094;8.800;2022-10-16T02:36:57;101050.53;;;12.25;100.00
29549;BME280;16487;53.094;8.800;2022-10-16T02:39:27;101042.59;;;12.24;100.00
29549;BME280;16487;53.094;8.800;2022-10-16T02:41:55;101049.50;;;12.19;100.00
29549;BME280;16487;53.094;8.800;2022-10-16T02:44:24;101051.09;;;12.20;100.00
29549;BME280;16487;53.094;8.800;2022-10-16T02:46:51;101051.88;;;12.21;100.00
29549;BME280;16487;53.094;8.800;2022-10-16T02:49:19;101046.28;;;12.21;100.00
29549;BME280;16487;53.094;8.800;2022-10-16T02:51:46;101058.34;;;12.18;100.00
29549;BME280;16487;53.094;8.800;2022-10-16T02:54:13;101063.25;;;12.14;100.00
29549;BME280;16487;53.094;8.800;2022-10-16T02:56:40;101058.91;;;12.13;100.00
29549;BME280;16487;53.094;8.800;2022-10-16T02:59:07;101067.75;;;12.11;100.00
29549;BME280;16487;53.094;8.800;2022-10-16T03:01:36;101062.94;;;12.12;100.00
29549;BME280;16487;53.094;8.800;2022-10-16T03:04:03;101062.72;;;12.06;100.00
29549;BME280;16487;53.094;8.800;2022-10-16T03:06:31;101078.00;;;12.02;100.00
29549;BME280;16487;53.094;8.800;2022-10-16T03:08:58;101078.34;;;12.04;100.00
29549;BME280;16487;53.094;8.800;2022-10-16T03:11:25;101086.63;;;12.07;100.00
29549;BME280;16487;53.094;8.800;2022-10-16T03:13:53;101085.16;;;12.03;100.00
29549;BME280;16487;53.094;8.800;2022-10-16T03:16:20;101091.44;;;12.07;100.00
29549;BME280;16487;53.094;8.800;2022-10-16T03:18:49;101082.28;;;12.06;100.00
29549;BME280;16487;53.094;8.800;2022-10-16T03:21:16;101093.09;;;12.04;100.00
29549;BME280;16487;53.094;8.800;2022-10-16T03:23:44;101085.28;;;11.99;100.00
29549;BME280;16487;53.094;8.800;2022-10-16T03:26:11;101096.34;;;12.03;100.00
29549;BME280;16487;53.094;8.800;2022-10-16T03:28:38;101110.06;;;11.97;100.00
29549;BME280;16487;53.094;8.800;2022-10-16T03:31:05;101115.56;;;12.01;100.00
29549;BME280;16487;53.094;8.800;2022-10-16T03:33:33;101119.25;;;11.98;100.00
29549;BME280;16487;53.094;8.800;2022-10-16T03:36:01;101130.50;;;11.94;100.00
29549;BME280;16487;53.094;8.800;2022-10-16T03:38:29;101127.81;;;11.91;100.00
29549;BME280;16487;53.094;8.800;2022-10-16T03:40:56;101130.28;;;11.89;100.00
29549;BME280;16487;53.094;8.800;2022-10-16T03:43:23;101134.06;;;11.95;100.00
29549;BME280;16487;53.094;8.800;2022-10-16T03:45:50;101134.63;;;11.90;100.00
29549;BME280;16487;53.094;8.800;2022-10-16T03:48:18;101131.16;;;11.86;100.00
29549;BME280;16487;53.094;8.800;2022-10-16T03:50:45;101140.31;;;11.86;100.00
29549;BME280;16487;53.094;8.800;2022-10-16T03:53:14;101149.47;;;11.87;100.00
29549;BME280;16487;53.094;8.800;2022-10-16T03:55:42;101156.41;;;11.82;100.00
29549;BME280;16487;53.094;8.800;2022-10-16T03:58:10;101156.50;;;11.79;100.00
29549;BME280;16487;53.094;8.800;2022-10-16T04:00:40;101169.88;;;11.71;100.00
29549;BME280;16487;53.094;8.800;2022-10-16T04:03:07;101169.97;;;11.68;100.00
29549;BME280;16487;53.094;8.800;2022-10-16T04:05:34;101181.81;;;11.72;100.00
29549;BME280;16487;53.094;8.800;2022-10-16T04:08:02;101185.16;;;11.67;100.00
29549;BME280;16487;53.094;8.800;2022-10-16T04:10:31;101193.78;;;11.72;100.00
29549;BME280;16487;53.094;8.800;2022-10-16T04:12:58;101211.31;;;11.73;100.00
29549;BME280;16487;53.094;8.800;2022-10-16T04:15:25;101227.19;;;11.60;100.00
29549;BME280;16487;53.094;8.800;2022-10-16T04:17:53;101236.22;;;11.64;100.00
29549;BME280;16487;53.094;8.800;2022-10-16T04:20:20;101251.38;;;11.66;100.00
29549;BME280;16487;53.094;8.800;2022-10-16T04:22:47;101252.16;;;11.67;100.00
29549;BME280;16487;53.094;8.800;2022-10-16T04:25:14;101254.44;;;11.72;100.00
29549;BME280;16487;53.094;8.800;2022-10-16T04:27:43;101256.69;;;11.77;100.00
29549;BME280;16487;53.094;8.800;2022-10-16T04:30:12;101247.69;;;11.85;100.00
29549;BME280;16487;53.094;8.800;2022-10-16T04:32:40;101263.53;;;11.88;100.00
29549;BME280;16487;53.094;8.800;2022-10-16T04:35:08;101259.78;;;11.95;100.00
29549;BME280;16487;53.094;8.800;2022-10-16T04:37:35;101265.53;;;12.04;100.00
29549;BME280;16487;53.094;8.800;2022-10-16T04:40:03;101268.31;;;12.04;100.00
29549;BME280;16487;53.094;8.800;2022-10-16T04:42:31;101277.03;;;12.06;100.00
29549;BME280;16487;53.094;8.800;2022-10-16T04:44:59;101289.47;;;12.05;100.00
29549;BME280;16487;53.094;8.800;2022-10-16T04:47:26;101291.09;;;12.02;100.00
29549;BME280;16487;53.094;8.800;2022-10-16T04:49:54;101294.16;;;12.08;100.00
29549;BME280;16487;53.094;8.800;2022-10-16T04:52:22;101290.31;;;12.02;100.00
29549;BME280;16487;53.094;8.800;2022-10-16T04:54:49;101303.34;;;12.08;100.00
29549;BME280;16487;53.094;8.800;2022-10-16T04:57:17;101302.88;;;12.10;100.00
29549;BME280;16487;53.094;8.800;2022-10-16T04:59:44;101307.78;;;12.06;100.00
29549;BME280;16487;53.094;8.800;2022-10-16T05:02:12;101311.63;;;12.12;100.00
29549;BME280;16487;53.094;8.800;2022-10-16T05:04:40;101323.47;;;12.16;100.00
29549;BME280;16487;53.094;8.800;2022-10-16T05:07:07;101322.59;;;12.19;100.00
29549;BME280;16487;53.094;8.800;2022-10-16T05:09:34;101329.75;;;12.20;100.00
29549;BME280;16487;53.094;8.800;2022-10-16T05:12:02;101332.00;;;12.25;100.00
29549;BME280;16487;53.094;8.800;2022-10-16T05:14:29;101338.97;;;12.33;100.00
29549;BME280;16487;53.094;8.800;2022-10-16T05:16:57;101336.72;;;12.28;100.00
29549;BME280;16487;53.094;8.800;2022-10-16T05:19:25;101340.56;;;12.34;100.00
29549;BME280;16487;53.094;8.800;2022-10-16T05:21:54;101352.44;;;12.38;100.00
29549;BME280;16487;53.094;8.800;2022-10-16T05:24:22;101351.34;;;12.48;100.00
29549;BME280;16487;53.094;8.800;2022-10-16T05:26:49;101345.91;;;12.57;100.00
29549;BME280;16487;53.094;8.800;2022-10-16T05:29:17;101344.66;;;12.58;100.00
29549;BME280;16487;53.094;8.800;2022-10-16T05:31:44;101351.50;;;12.57;100.00
29549;BME280;16487;53.094;8.800;2022-10-16T05:34:11;101358.81;;;12.67;100.00
29549;BME280;16487;53.094;8.800;2022-10-16T05:36:40;101357.09;;;12.57;100.00
29549;BME280;16487;53.094;8.800;2022-10-16T05:39:07;101355.84;;;12.58;100.00
29549;BME280;16487;53.094;8.800;2022-10-16T05:41:34;101348.81;;;12.53;100.00
29549;BME280;16487;53.094;8.800;2022-10-16T05:44:04;101355.16;;;12.54;100.00
29549;BME280;16487;53.094;8.800;2022-10-16T05:46:31;101357.59;;;12.52;100.00
29549;BME280;16487;53.094;8.800;2022-10-16T05:48:59;101357.28;;;12.50;100.00
29549;BME280;16487;53.094;8.800;2022-10-16T05:51:26;101353.75;;;12.62;100.00
29549;BME280;16487;53.094;8.800;2022-10-16T05:53:55;101357.75;;;12.61;100.00
29549;BME280;16487;53.094;8.800;2022-10-16T05:56:22;101370.19;;;12.60;100.00
29549;BME280;16487;53.094;8.800;2022-10-16T05:58:49;101375.00;;;12.59;100.00
29549;BME280;16487;53.094;8.800;2022-10-16T06:01:18;101364.50;;;12.63;100.00
29549;BME280;16487;53.094;8.800;2022-10-16T06:03:45;101368.41;;;12.66;100.00
29549;BME280;16487;53.094;8.800;2022-10-16T06:06:15;101367.63;;;12.65;100.00
29549;BME280;16487;53.094;8.800;2022-10-16T06:08:43;101377.59;;;12.66;100.00
29549;BME280;16487;53.094;8.800;2022-10-16T06:11:14;101376.78;;;12.66;100.00
29549;BME280;16487;53.094;8.800;2022-10-16T06:13:42;101371.56;;;12.68;100.00
29549;BME280;16487;53.094;8.800;2022-10-16T06:16:10;101368.22;;;12.73;100.00
29549;BME280;16487;53.094;8.800;2022-10-16T06:18:38;101380.44;;;12.79;100.00
29549;BME280;16487;53.094;8.800;2022-10-16T06:21:07;101377.97;;;12.81;100.00
29549;BME280;16487;53.094;8.800;2022-10-16T06:23:34;101374.75;;;12.83;100.00
29549;BME280;16487;53.094;8.800;2022-10-16T06:26:06;101372.94;;;12.89;100.00
29549;BME280;16487;53.094;8.800;2022-10-16T06:28:35;101370.16;;;12.89;100.00
29549;BME280;16487;53.094;8.800;2022-10-16T06:31:03;101369.59;;;12.94;100.00
29549;BME280;16487;53.094;8.800;2022-10-16T06:33:35;101372.31;;;12.97;100.00
29549;BME280;16487;53.094;8.800;2022-10-16T06:36:03;101365.50;;;12.98;100.00
29549;BME280;16487;53.094;8.800;2022-10-16T06:38:31;101367.25;;;12.92;100.00
29549;BME280;16487;53.094;8.800;2022-10-16T06:40:59;101367.59;;;12.94;100.00
29549;BME280;16487;53.094;8.800;2022-10-16T06:43:28;101372.31;;;12.97;100.00
29549;BME280;16487;53.094;8.800;2022-10-16T06:45:58;101370.63;;;13.00;100.00
29549;BME280;16487;53.094;8.800;2022-10-16T06:48:26;101373.00;;;13.01;100.00
29549;BME280;16487;53.094;8.800;2022-10-16T06:50:58;101367.66;;;13.07;100.00
29549;BME280;16487;53.094;8.800;2022-10-16T06:53:27;101369.66;;;13.06;100.00
29549;BME280;16487;53.094;8.800;2022-10-16T06:55:55;101369.00;;;13.15;100.00
29549;BME280;16487;53.094;8.800;2022-10-16T06:58:23;101368.22;;;13.14;100.00
29549;BME280;16487;53.094;8.800;2022-10-16T07:00:55;101362.41;;;13.21;100.00
29549;BME280;16487;53.094;8.800;2022-10-16T07:03:24;101360.84;;;13.20;100.00
29549;BME280;16487;53.094;8.800;2022-10-16T07:05:51;101350.78;;;13.23;100.00
29549;BME280;16487;53.094;8.800;2022-10-16T07:08:18;101355.94;;;13.24;100.00
29549;BME280;16487;53.094;8.800;2022-10-16T07:10:46;101346.75;;;13.24;100.00
29549;BME280;16487;53.094;8.800;2022-10-16T07:13:13;101349.56;;;13.36;100.00
29549;BME280;16487;53.094;8.800;2022-10-16T07:15:41;101353.47;;;13.39;100.00
29549;BME280;16487;53.094;8.800;2022-10-16T07:18:08;101353.69;;;13.44;100.00
29549;BME280;16487;53.094;8.800;2022-10-16T07:20:37;101348.66;;;13.52;100.00
29549;BME280;16487;53.094;8.800;2022-10-16T07:23:04;101343.94;;;13.61;100.00
29549;BME280;16487;53.094;8.800;2022-10-16T07:25:31;101344.50;;;13.69;100.00
29549;BME280;16487;53.094;8.800;2022-10-16T07:27:58;101326.44;;;13.82;100.00
29549;BME280;16487;53.094;8.800;2022-10-16T07:30:26;101328.41;;;13.95;100.00
29549;BME280;16487;53.094;8.800;2022-10-16T07:32:53;101335.16;;;13.97;100.00
29549;BME280;16487;53.094;8.800;2022-10-16T07:35:20;101327.59;;;14.07;100.00
29549;BME280;16487;53.094;8.800;2022-10-16T07:37:49;101309.56;;;14.08;100.00
29549;BME280;16487;53.094;8.800;2022-10-16T07:40:16;101298.78;;;14.06;100.00
29549;BME280;16487;53.094;8.800;2022-10-16T07:42:43;101299.69;;;14.03;100.00
29549;BME280;16487;53.094;8.800;2022-10-16T07:45:11;101291.28;;;14.03;100.00
29549;BME280;16487;53.094;8.800;2022-10-16T07:47:38;101304.09;;;14.04;100.00
29549;BME280;16487;53.094;8.800;2022-10-16T07:50:06;101292.06;;;14.04;100.00
29549;BME280;16487;53.094;8.800;2022-10-16T07:52:33;101289.41;;;14.00;100.00
29549;BME280;16487;53.094;8.800;2022-10-16T07:55:02;101286.59;;;14.00;100.00
29549;BME280;16487;53.094;8.800;2022-10-16T07:57:29;101293.50;;;14.08;100.00
29549;BME280;16487;53.094;8.800;2022-10-16T07:59:57;101299.41;;;14.23;100.00
29549;BME280;16487;53.094;8.800;2022-10-16T08:02:24;101291.59;;;14.39;100.00
29549;BME280;16487;53.094;8.800;2022-10-16T08:04:51;101287.19;;;14.51;100.00
29549;BME280;16487;53.094;8.800;2022-10-16T08:07:18;101289.16;;;14.63;100.00
29549;BME280;16487;53.094;8.800;2022-10-16T08:09:49;101272.69;;;14.74;100.00
29549;BME280;16487;53.094;8.800;2022-10-16T08:12:18;101272.72;;;14.83;100.00
29549;BME280;16487;53.094;8.800;2022-10-16T08:14:45;101271.84;;;14.95;100.00
29549;BME280;16487;53.094;8.800;2022-10-16T08:17:14;101274.06;;;15.00;100.00
29549;BME280;16487;53.094;8.800;2022-10-16T08:19:44;101262.19;;;14.96;100.00
29549;BME280;16487;53.094;8.800;2022-10-16T08:22:12;101260.03;;;15.00;100.00
29549;BME280;16487;53.094;8.800;2022-10-16T08:24:40;101267.75;;;15.18;100.00
29549;BME280;16487;53.094;8.800;2022-10-16T08:27:07;101265.69;;;15.09;100.00
29549;BME280;16487;53.094;8.800;2022-10-16T08:29:36;101254.81;;;15.20;100.00
29549;BME280;16487;53.094;8.800;2022-10-16T08:32:03;101267.25;;;15.10;100.00
29549;BME280;16487;53.094;8.800;2022-10-16T08:34:31;101256.34;;;15.12;100.00
29549;BME280;16487;53.094;8.800;2022-10-16T08:36:58;101258.19;;;15.06;100.00
29549;BME280;16487;53.094;8.800;2022-10-16T08:39:31;101259.50;;;15.23;100.00
29549;BME280;16487;53.094;8.800;2022-10-16T08:42:11;101251.63;;;15.40;100.00
29549;BME280;16487;53.094;8.800;2022-10-16T08:47:49;101267.28;;;15.59;100.00
29549;BME280;16487;53.094;8.800;2022-10-16T08:50:22;101258.69;;;15.44;100.00
29549;BME280;16487;53.094;8.800;2022-10-16T08:52:50;101271.06;;;15.34;100.00
29549;BME280;16487;53.094;8.800;2022-10-16T08:55:31;101278.63;;;15.46;100.00
29549;BME280;16487;53.094;8.800;2022-10-16T08:58:00;101267.09;;;15.44;100.00
29549;BME280;16487;53.094;8.800;2022-10-16T09:00:29;101274.91;;;15.49;100.00
29549;BME280;16487;53.094;8.800;2022-10-16T09:03:04;101279.63;;;15.61;100.00
29549;BME280;16487;53.094;8.800;2022-10-16T09:05:57;101279.34;;;15.68;100.00
29549;BME280;16487;53.094;8.800;2022-10-16T09:08:32;101284.50;;;15.79;100.00
29549;BME280;16487;53.094;8.800;2022-10-16T09:11:11;101278.72;;;15.91;100.00
29549;BME280;16487;53.094;8.800;2022-10-16T09:13:48;101274.53;;;16.05;100.00
29549;BME280;16487;53.094;8.800;2022-10-16T09:16:23;101289.69;;;16.08;100.00
29549;BME280;16487;53.094;8.800;2022-10-16T09:18:55;101274.03;;;16.16;100.00
29549;BME280;16487;53.094;8.800;2022-10-16T09:21:26;101291.88;;;16.31;100.00
29549;BME280;16487;53.094;8.800;2022-10-16T09:23:58;101295.00;;;16.60;100.00
29549;BME280;16487;53.094;8.800;2022-10-16T09:26:27;101280.38;;;16.88;100.00
29549;BME280;16487;53.094;8.800;2022-10-16T09:28:54;101285.69;;;16.95;100.00
29549;BME280;16487;53.094;8.800;2022-10-16T09:31:23;101308.03;;;16.99;100.00
29549;BME280;16487;53.094;8.800;2022-10-16T09:33:53;101288.41;;;16.81;100.00
29549;BME280;16487;53.094;8.800;2022-10-16T09:36:23;101303.06;;;16.85;100.00
29549;BME280;16487;53.094;8.800;2022-10-16T09:39:03;101294.44;;;16.97;100.00
29549;BME280;16487;53.094;8.800;2022-10-16T09:41:33;101300.25;;;16.94;100.00
29549;BME280;16487;53.094;8.800;2022-10-16T09:44:01;101295.94;;;17.16;100.00
29549;BME280;16487;53.094;8.800;2022-10-16T09:46:34;101296.53;;;17.30;100.00
29549;BME280;16487;53.094;8.800;2022-10-16T09:49:04;101308.88;;;17.32;100.00
29549;BME280;16487;53.094;8.800;2022-10-16T09:51:33;101313.19;;;17.09;100.00
29549;BME280;16487;53.094;8.800;2022-10-16T09:54:11;101307.00;;;17.29;100.00
29549;BME280;16487;53.094;8.800;2022-10-16T09:56:39;101308.22;;;17.37;100.00
29549;BME280;16487;53.094;8.800;2022-10-16T09:59:11;101309.69;;;17.24;100.00
29549;BME280;16487;53.094;8.800;2022-10-16T10:01:41;101324.66;;;17.48;100.00
29549;BME280;16487;53.094;8.800;2022-10-16T10:04:10;101326.19;;;18.05;100.00
29549;BME280;16487;53.094;8.800;2022-10-16T10:06:42;101330.72;;;18.50;100.00
29549;BME280;16487;53.094;8.800;2022-10-16T10:09:20;101330.88;;;18.70;100.00
29549;BME280;16487;53.094;8.800;2022-10-16T10:11:51;101334.00;;;18.72;100.00
29549;BME280;16487;53.094;8.800;2022-10-16T10:14:28;101348.19;;;18.77;100.00
29549;BME280;16487;53.094;8.800;2022-10-16T10:17:14;101344.09;;;18.49;100.00
29549;BME280;16487;53.094;8.800;2022-10-16T10:19:46;101357.25;;;18.67;100.00
29549;BME280;16487;53.094;8.800;2022-10-16T10:22:17;101363.41;;;19.09;100.00
29549;BME280;16487;53.094;8.800;2022-10-16T10:24:54;101380.00;;;18.63;100.00
29549;BME280;16487;53.094;8.800;2022-10-16T10:27:25;101360.69;;;19.00;100.00
29549;BME280;16487;53.094;8.800;2022-10-16T10:30:01;101380.78;;;19.16;100.00
29549;BME280;16487;53.094;8.800;2022-10-16T10:32:37;101374.31;;;18.87;100.00
29549;BME280;16487;53.094;8.800;2022-10-16T10:35:15;101376.25;;;18.81;100.00
29549;BME280;16487;53.094;8.800;2022-10-16T10:37:55;101386.75;;;18.18;100.00
29549;BME280;16487;53.094;8.800;2022-10-16T10:40:40;101383.59;;;18.49;100.00
29549;BME280;16487;53.094;8.800;2022-10-16T10:43:20;101371.72;;;19.27;100.00
29549;BME280;16487;53.094;8.800;2022-10-16T10:45:57;101390.16;;;19.37;100.00
29549;BME280;16487;53.094;8.800;2022-10-16T10:48:42;101381.97;;;19.39;100.00
29549;BME280;16487;53.094;8.800;2022-10-16T10:51:17;101386.75;;;19.33;100.00
29549;BME280;16487;53.094;8.800;2022-10-16T10:53:55;101384.66;;;19.48;100.00
29549;BME280;16487;53.094;8.800;2022-10-16T10:56:40;101389.03;;;19.64;100.00
29549;BME280;16487;53.094;8.800;2022-10-16T10:59:32;101389.09;;;19.84;100.00
29549;BME280;16487;53.094;8.800;2022-10-16T11:02:12;101395.44;;;20.13;100.00
29549;BME280;16487;53.094;8.800;2022-10-16T11:07:48;101417.16;;;20.57;100.00
29549;BME280;16487;53.094;8.800;2022-10-16T11:10:19;101406.16;;;20.64;100.00
29549;BME280;16487;53.094;8.800;2022-10-16T11:12:52;101412.53;;;19.84;100.00
29549;BME280;16487;53.094;8.800;2022-10-16T11:15:24;101412.63;;;20.10;100.00
29549;BME280;16487;53.094;8.800;2022-10-16T11:17:57;101408.94;;;20.04;100.00
29549;BME280;16487;53.094;8.800;2022-10-16T11:20:29;101411.59;;;20.68;100.00
29549;BME280;16487;53.094;8.800;2022-10-16T11:25:30;101431.44;;;20.68;100.00
29549;BME280;16487;53.094;8.800;2022-10-16T11:28:02;101415.75;;;21.38;100.00
29549;BME280;16487;53.094;8.800;2022-10-16T11:30:39;101434.13;;;20.97;100.00
29549;BME280;16487;53.094;8.800;2022-10-16T11:33:23;101430.88;;;20.09;100.00
29549;BME280;16487;53.094;8.800;2022-10-16T11:35:59;101422.25;;;20.52;100.00
29549;BME280;16487;53.094;8.800;2022-10-16T11:38:29;101431.34;;;21.02;100.00
29549;BME280;16487;53.094;8.800;2022-10-16T11:41:01;101428.25;;;21.51;100.00
29549;BME280;16487;53.094;8.800;2022-10-16T11:43:35;101440.69;;;21.85;100.00
29549;BME280;16487;53.094;8.800;2022-10-16T11:46:10;101443.94;;;21.47;100.00
29549;BME280;16487;53.094;8.800;2022-10-16T11:48:43;101443.91;;;20.35;100.00
29549;BME280;16487;53.094;8.800;2022-10-16T11:51:19;101454.91;;;20.48;100.00
29549;BME280;16487;53.094;8.800;2022-10-16T11:53:57;101462.56;;;21.28;100.00
29549;BME280;16487;53.094;8.800;2022-10-16T11:56:27;101457.38;;;20.81;100.00
29549;BME280;16487;53.094;8.800;2022-10-16T11:58:59;101462.28;;;19.47;100.00
29549;BME280;16487;53.094;8.800;2022-10-16T12:01:31;101469.09;;;19.55;100.00
29549;BME280;16487;53.094;8.800;2022-10-16T12:04:06;101473.50;;;19.56;100.00
29549;BME280;16487;53.094;8.800;2022-10-16T12:06:44;101473.00;;;18.90;100.00
29549;BME280;16487;53.094;8.800;2022-10-16T12:09:17;101472.41;;;19.97;100.00
29549;BME280;16487;53.094;8.800;2022-10-16T12:11:47;101477.78;;;20.44;100.00
29549;BME280;16487;53.094;8.800;2022-10-16T12:14:34;101482.97;;;19.53;100.00
29549;BME280;16487;53.094;8.800;2022-10-16T12:17:24;101493.22;;;20.84;100.00
29549;BME280;16487;53.094;8.800;2022-10-16T12:20:12;101475.69;;;21.25;100.00
29549;BME280;16487;53.094;8.800;2022-10-16T12:22:49;101481.97;;;22.23;100.00
29549;BME280;16487;53.094;8.800;2022-10-16T12:25:26;101484.06;;;20.54;100.00
29549;BME280;16487;53.094;8.800;2022-10-16T12:27:58;101497.97;;;19.30;100.00
29549;BME280;16487;53.094;8.800;2022-10-16T12:30:28;101502.78;;;19.15;100.00
29549;BME280;16487;53.094;8.800;2022-10-16T12:33:03;101510.53;;;18.91;100.00
29549;BME280;16487;53.094;8.800;2022-10-16T12:35:32;101512.03;;;18.54;100.00
29549;BME280;16487;53.094;8.800;2022-10-16T12:38:07;101508.25;;;19.57;100.00
29549;BME280;16487;53.094;8.800;2022-10-16T12:40:39;101517.94;;;20.63;100.00
29549;BME280;16487;53.094;8.800;2022-10-16T12:43:25;101514.66;;;21.30;100.00
29549;BME280;16487;53.094;8.800;2022-10-16T12:46:01;101512.16;;;21.89;100.00
29549;BME280;16487;53.094;8.800;2022-10-16T12:48:28;101514.47;;;21.85;100.00
29549;BME280;16487;53.094;8.800;2022-10-16T12:51:23;101511.09;;;21.61;100.00
29549;BME280;16487;53.094;8.800;2022-10-16T12:54:04;101527.72;;;21.22;100.00
29549;BME280;16487;53.094;8.800;2022-10-16T12:56:41;101524.16;;;22.35;100.00
29549;BME280;16487;53.094;8.800;2022-10-16T12:59:21;101527.09;;;21.58;100.00
29549;BME280;16487;53.094;8.800;2022-10-16T13:02:16;101530.03;;;21.44;100.00
29549;BME280;16487;53.094;8.800;2022-10-16T13:05:02;101531.88;;;21.73;100.00
29549;BME280;16487;53.094;8.800;2022-10-16T13:07:49;101545.34;;;21.52;100.00